Time;durP1;ratioP1;P1;durP2;ratioP2;P2;SDS_P1;SDS_P2;PMS_P1;PMS_P2;Temp;Humidity;BMP_temperature;BMP_pressure;BME280_temperature;BME280_humidity;BME280_pressure;Samples;Min_cycle;Max_cycle;Signal;HPM_P1;HPM_P2
2023/09/14 00:01:01;;;;;;;7.45;6.75;;;;;;;26.39;52.86;101190.94;4998514;28;20053;-60
2023/09/14 00:03:29;;;;;;;6.90;6.20;;;;;;;26.38;52.85;101183.81;4999472;28;20501;-60
2023/09/14 00:05:57;;;;;;;6.50;5.72;;;;;;;26.39;53.03;101183.63;4998311;28;20476;-60
2023/09/14 00:08:27;;;;;;;7.50;6.55;;;;;;;26.40;53.02;101179.03;4998151;28;20042;-61
2023/09/14 00:10:56;;;;;;;7.32;6.63;;;;;;;26.40;52.85;101179.03;4998082;28;20059;-60
2023/09/14 00:13:24;;;;;;;7.05;6.35;;;;;;;26.41;52.85;101182.59;4999312;28;20065;-60
2023/09/14 00:15:52;;;;;;;7.28;6.55;;;;;;;26.39;52.71;101185.50;5000626;28;20051;-60
2023/09/14 00:18:20;;;;;;;7.35;6.15;;;;;;;26.40;52.67;101179.03;5013521;28;20049;-63
2023/09/14 00:20:48;;;;;;;7.00;6.30;;;;;;;26.41;52.65;101177.16;5013262;28;20046;-64
2023/09/14 00:23:15;;;;;;;6.38;5.70;;;;;;;26.40;52.60;101181.75;5011017;28;20404;-64
2023/09/14 00:25:43;;;;;;;6.82;6.05;;;;;;;26.40;52.51;101181.75;5012524;28;20401;-64
2023/09/14 00:28:10;;;;;;;7.28;6.05;;;;;;;26.41;52.68;101182.59;5013088;28;20068;-64
2023/09/14 00:30:37;;;;;;;6.53;5.88;;;;;;;26.40;52.59;101179.03;4999496;28;20061;-64
2023/09/14 00:33:05;;;;;;;6.60;5.78;;;;;;;26.40;52.68;101170.91;5012276;28;20053;-64
2023/09/14 00:35:32;;;;;;;7.38;6.70;;;;;;;26.40;52.69;101179.03;5010524;28;20061;-64
2023/09/14 00:37:59;;;;;;;7.00;6.32;;;;;;;26.41;52.67;101175.31;5011508;28;20053;-61
2023/09/14 00:40:27;;;;;;;6.90;6.18;;;;;;;26.42;52.61;101174.31;5011442;28;20049;-60
2023/09/14 00:42:55;;;;;;;7.22;6.18;;;;;;;26.41;52.61;101179.88;5010972;28;20523;-60
2023/09/14 00:45:22;;;;;;;7.30;6.03;;;;;;;26.41;52.50;101175.31;5011689;28;20055;-60
2023/09/14 00:47:52;;;;;;;7.43;6.72;;;;;;;26.40;52.62;101179.03;5011220;28;20053;-60
2023/09/14 00:50:21;;;;;;;6.97;6.28;;;;;;;26.41;52.60;101174.47;5011225;28;20050;-64
2023/09/14 00:52:57;;;;;;;6.63;5.78;;;;;;;26.40;52.51;101170.91;5008567;28;20057;-64
2023/09/14 00:55:25;;;;;;;6.63;5.97;;;;;;;26.41;52.44;101177.16;4986632;28;20057;-64
2023/09/14 00:57:54;;;;;;;7.07;6.38;;;;;;;26.41;52.51;101169.03;4997501;28;20047;-64
2023/09/14 01:00:22;;;;;;;6.45;5.85;;;;;;;26.40;52.63;101168.19;4998273;28;20038;-60
2023/09/14 01:02:52;;;;;;;6.13;5.53;;;;;;;26.41;52.52;101169.03;4993164;28;20409;-61
2023/09/14 01:05:20;;;;;;;6.53;5.82;;;;;;;26.41;52.50;101169.88;4995722;28;20050;-61
2023/09/14 01:07:48;;;;;;;6.97;6.28;;;;;;;26.42;52.69;101168.03;4995556;28;20054;-61
2023/09/14 01:10:16;;;;;;;6.65;5.60;;;;;;;26.40;52.52;101168.19;4998011;28;20042;-63
2023/09/14 01:12:47;;;;;;;6.60;6.00;;;;;;;26.41;52.62;101177.16;4995917;28;20078;-63
2023/09/14 01:15:29;;;;;;;6.63;5.97;;;;;;;26.40;52.99;101168.19;4995581;28;20061;-64
2023/09/14 01:18:26;;;;;;;6.77;6.10;;;;;;;26.41;52.78;101166.31;4995469;28;20061;-62
2023/09/14 01:21:11;;;;;;;6.78;6.00;;;;;;;26.40;52.50;101165.47;4996919;28;20043;-60
2023/09/14 01:23:57;;;;;;;6.47;5.82;;;;;;;26.39;52.58;101164.63;4995040;28;20050;-60
2023/09/14 01:26:27;;;;;;;7.10;6.35;;;;;;;26.40;52.62;101165.47;4993815;28;20061;-60
2023/09/14 01:28:55;;;;;;;7.15;6.43;;;;;;;26.40;52.61;101162.75;4995583;28;20050;-63
2023/09/14 01:31:23;;;;;;;6.68;5.97;;;;;;;26.40;52.41;101165.47;4995249;28;20057;-64
2023/09/14 01:33:50;;;;;;;6.90;6.13;;;;;;;26.40;52.47;101160.03;4997313;28;20073;-64
2023/09/14 01:36:41;;;;;;;7.15;6.45;;;;;;;26.41;52.47;101169.88;4994816;28;20421;-64
2023/09/14 01:39:12;;;;;;;6.57;5.90;;;;;;;26.39;52.61;101164.63;4995060;28;20544;-63
2023/09/14 01:41:41;;;;;;;6.97;6.28;;;;;;;26.39;52.49;101164.63;4996019;28;20046;-64
2023/09/14 01:44:09;;;;;;;6.80;5.90;;;;;;;26.39;52.47;101170.06;4991913;28;20049;-64
2023/09/14 01:46:38;;;;;;;6.88;5.57;;;;;;;26.39;52.54;101163.78;4988383;28;20516;-64
2023/09/14 01:49:06;;;;;;;8.20;6.25;;;;;;;26.40;52.47;101162.75;4994538;28;20421;-60
2023/09/14 01:51:33;;;;;;;8.00;7.20;;;;;;;26.39;52.46;101159.19;4997174;28;20489;-60
2023/09/14 01:54:01;;;;;;;7.22;6.60;;;;;;;26.38;52.23;101160.22;4994826;28;20058;-60
2023/09/14 01:56:28;;;;;;;6.93;6.00;;;;;;;26.39;52.39;101155.63;4994724;28;20058;-60
2023/09/14 01:58:56;;;;;;;6.25;5.65;;;;;;;26.39;52.25;101158.34;4994542;28;20065;-60
2023/09/14 02:01:23;;;;;;;7.18;6.53;;;;;;;26.38;52.35;101160.22;4995876;28;20057;-60
2023/09/14 02:03:50;;;;;;;6.28;5.65;;;;;;;26.37;52.26;101155.81;4994991;28;20054;-60
2023/09/14 02:06:18;;;;;;;6.95;6.25;;;;;;;26.37;52.32;101158.53;4994552;28;20050;-60
2023/09/14 02:08:45;;;;;;;6.70;5.97;;;;;;;26.39;52.30;101166.50;4996041;28;20046;-60
2023/09/14 02:11:13;;;;;;;6.65;5.85;;;;;;;26.38;52.24;101170.25;4995334;28;20054;-60
2023/09/14 02:13:41;;;;;;;7.18;6.47;;;;;;;26.37;52.16;101168.50;4994333;28;20054;-60
2023/09/14 02:16:09;;;;;;;7.20;5.82;;;;;;;26.38;52.11;101168.38;4999842;28;20053;-60
2023/09/14 02:18:36;;;;;;;6.72;5.75;;;;;;;26.38;52.15;101148.53;5011139;28;20046;-63
2023/09/14 02:21:04;;;;;;;7.78;5.63;;;;;;;26.37;52.17;101155.81;5009043;28;20408;-64
2023/09/14 02:23:31;;;;;;;7.38;6.32;;;;;;;26.38;52.11;101154.78;5008280;28;20061;-64
2023/09/14 02:25:59;;;;;;;8.50;6.65;;;;;;;26.38;52.34;101159.38;5010856;28;20408;-64
2023/09/14 02:28:26;;;;;;;7.05;6.35;;;;;;;26.38;51.99;101162.09;5011202;28;20056;-61
2023/09/14 02:30:54;;;;;;;6.53;5.82;;;;;;;26.37;52.23;101157.66;5008924;28;20432;-60
2023/09/14 02:33:21;;;;;;;8.68;6.95;;;;;;;26.36;51.96;101147.81;5006495;28;20058;-60
2023/09/14 02:35:50;;;;;;;7.40;6.70;;;;;;;26.36;52.01;101156.81;5008712;28;20054;-60
2023/09/14 02:38:18;;;;;;;7.03;6.40;;;;;;;26.37;52.00;101157.66;5010741;28;20511;-64
2023/09/14 02:40:46;;;;;;;6.95;6.15;;;;;;;26.36;51.87;101164.13;5008161;28;20041;-64
2023/09/14 02:43:14;;;;;;;6.35;5.30;;;;;;;26.38;52.07;101156.66;5006884;28;20065;-64
2023/09/14 02:45:41;;;;;;;7.10;6.40;;;;;;;26.37;51.97;101153.09;5010896;28;20045;-65
2023/09/14 02:48:09;;;;;;;6.20;5.60;;;;;;;26.37;51.93;101149.50;5009142;28;20054;-63
2023/09/14 02:50:36;;;;;;;6.63;6.00;;;;;;;26.36;52.15;101156.81;5009507;28;20403;-65
2023/09/14 02:53:04;;;;;;;7.15;5.43;;;;;;;26.37;51.92;101152.22;5006804;28;20038;-65
2023/09/14 02:55:34;;;;;;;6.63;5.88;;;;;;;26.37;51.94;101163.09;4994774;28;20057;-65
2023/09/14 02:58:06;;;;;;;7.72;5.72;;;;;;;26.36;51.91;101161.41;4993595;28;20058;-62
2023/09/14 03:00:33;;;;;;;6.78;5.93;;;;;;;26.36;51.94;101170.38;4994134;28;20061;-60
2023/09/14 03:03:02;;;;;;;6.80;6.00;;;;;;;26.36;51.89;101162.25;4993732;28;20053;-60
2023/09/14 03:05:30;;;;;;;8.15;6.43;;;;;;;26.36;52.05;101159.53;4993476;28;20062;-60
2023/09/14 03:07:58;;;;;;;6.30;5.25;;;;;;;26.37;51.92;101166.69;4993629;28;20054;-61
2023/09/14 03:10:26;;;;;;;7.10;6.07;;;;;;;26.36;52.01;101155.97;4994569;28;20053;-60
2023/09/14 03:12:54;;;;;;;6.03;5.43;;;;;;;26.36;52.03;101156.81;4978119;28;20046;-62
2023/09/14 03:15:21;;;;;;;6.30;5.70;;;;;;;26.35;52.03;101151.56;4995314;28;20465;-62
2023/09/14 03:17:50;;;;;;;5.72;5.13;;;;;;;26.34;51.89;101149.88;4993648;28;20393;-62
2023/09/14 03:20:17;;;;;;;6.80;6.10;;;;;;;26.30;51.78;101149.38;4994457;28;20046;-63
2023/09/14 03:22:45;;;;;;;7.03;6.07;;;;;;;26.28;51.48;101147.81;4993606;28;20058;-62
2023/09/14 03:25:13;;;;;;;9.00;6.03;;;;;;;26.26;51.48;101153.44;4994172;28;20054;-63
2023/09/14 03:27:40;;;;;;;6.35;5.75;;;;;;;26.25;51.49;101153.59;4993340;28;20062;-62
2023/09/14 03:30:09;;;;;;;6.47;5.88;;;;;;;26.23;51.61;101145.63;4994754;28;20054;-62
2023/09/14 03:32:36;;;;;;;7.00;5.72;;;;;;;26.22;51.48;101143.09;4995017;28;20053;-62
2023/09/14 03:35:04;;;;;;;7.28;5.20;;;;;;;26.20;51.43;101143.25;4993328;28;20519;-63
2023/09/14 03:37:31;;;;;;;5.78;5.00;;;;;;;26.20;51.32;101142.41;4994616;28;20061;-63
2023/09/14 03:39:59;;;;;;;7.85;5.93;;;;;;;26.17;51.28;101148.16;4994304;28;20060;-62
2023/09/14 03:42:26;;;;;;;6.55;5.55;;;;;;;26.14;51.24;101152.94;4993522;28;20481;-62
2023/09/14 03:44:54;;;;;;;7.43;5.50;;;;;;;26.13;51.26;101148.53;4994721;28;20057;-62
2023/09/14 03:47:22;;;;;;;5.50;5.00;;;;;;;26.11;51.24;101150.53;4995146;28;20054;-63
2023/09/14 03:49:49;;;;;;;6.50;5.80;;;;;;;26.10;51.21;101153.44;4994421;28;20046;-62
2023/09/14 03:52:17;;;;;;;7.55;5.45;;;;;;;26.09;51.30;101158.03;4993070;28;20050;-62
2023/09/14 03:54:45;;;;;;;7.50;6.05;;;;;;;26.06;51.38;101150.22;4994648;28;20046;-62
2023/09/14 03:57:15;;;;;;;6.68;5.85;;;;;;;26.06;51.45;101155.63;4994505;28;20050;-62
2023/09/14 03:59:44;;;;;;;6.38;5.70;;;;;;;26.06;51.32;101150.22;4995838;28;20065;-62
2023/09/14 04:02:12;;;;;;;7.20;6.50;;;;;;;26.06;51.33;101147.50;4983217;28;20045;-62
2023/09/14 04:04:41;;;;;;;6.25;5.57;;;;;;;26.05;51.27;101144.94;4994804;28;20042;-62
2023/09/14 04:07:08;;;;;;;6.32;5.72;;;;;;;26.02;51.15;101151.56;4993769;28;20409;-61
2023/09/14 04:09:37;;;;;;;5.90;5.28;;;;;;;26.03;51.23;101153.25;4996830;28;20408;-62
2023/09/14 04:12:05;;;;;;;6.10;5.50;;;;;;;26.03;51.38;101155.97;4998065;28;20044;-63
2023/09/14 04:14:32;;;;;;;6.55;5.75;;;;;;;26.03;51.31;101152.41;4995929;28;20394;-62
2023/09/14 04:17:01;;;;;;;7.20;5.53;;;;;;;26.03;51.25;101147.81;5006391;28;20065;-62
2023/09/14 04:19:29;;;;;;;6.53;5.43;;;;;;;26.02;51.30;101150.72;5007302;28;20397;-62
2023/09/14 04:21:57;;;;;;;6.85;5.80;;;;;;;26.02;51.08;101148.00;5012975;28;20053;-63
2023/09/14 04:24:27;;;;;;;7.05;5.55;;;;;;;26.02;51.10;101151.56;5002637;28;20157;-63
2023/09/14 04:26:54;;;;;;;6.35;5.72;;;;;;;26.02;51.16;101146.13;4998917;28;20053;-63
2023/09/14 04:29:21;;;;;;;7.50;5.72;;;;;;;26.02;50.97;101148.00;4996756;28;20054;-62
2023/09/14 04:31:49;;;;;;;6.85;4.95;;;;;;;26.00;50.82;101142.72;4996235;28;20050;-62
2023/09/14 04:34:17;;;;;;;6.97;5.43;;;;;;;26.00;50.79;101150.88;4997961;28;20054;-61
2023/09/14 04:36:44;;;;;;;6.00;4.88;;;;;;;25.99;51.04;101160.03;4998448;28;20077;-62
2023/09/14 04:39:12;;;;;;;5.38;4.85;;;;;;;26.00;50.87;101158.16;4996200;28;20501;-62
2023/09/14 04:41:40;;;;;;;6.68;5.40;;;;;;;25.99;50.91;101162.75;4996586;28;20137;-62
2023/09/14 04:44:08;;;;;;;7.07;5.70;;;;;;;25.98;50.91;101161.06;4995979;28;20046;-62
2023/09/14 04:46:36;;;;;;;6.80;5.43;;;;;;;25.97;50.87;101159.38;4996803;28;20065;-63
2023/09/14 04:49:04;;;;;;;6.57;5.32;;;;;;;25.96;50.94;101160.34;4995964;28;20057;-62
2023/09/14 04:51:32;;;;;;;6.75;6.05;;;;;;;25.97;50.73;101163.91;4995845;28;20061;-62
2023/09/14 04:53:59;;;;;;;5.97;5.35;;;;;;;25.95;50.73;101161.38;4995560;28;20054;-63
2023/09/14 04:56:27;;;;;;;7.53;5.43;;;;;;;25.95;50.71;101168.69;4997022;28;20050;-63
2023/09/14 04:58:55;;;;;;;7.05;5.50;;;;;;;25.93;50.83;101171.56;4995753;28;20054;-62
2023/09/14 05:01:22;;;;;;;7.80;6.53;;;;;;;25.92;50.77;101177.16;4995490;28;20046;-62
2023/09/14 05:03:50;;;;;;;6.85;5.78;;;;;;;25.90;50.78;101174.59;4995615;28;20054;-63
2023/09/14 05:06:18;;;;;;;7.90;5.63;;;;;;;25.89;50.81;101181.06;4998000;28;20412;-62
2023/09/14 05:08:45;;;;;;;6.68;5.93;;;;;;;25.87;50.86;101174.94;4997104;28;20058;-62
2023/09/14 05:11:13;;;;;;;6.85;5.63;;;;;;;25.86;50.82;101174.09;4995478;28;20053;-62
2023/09/14 05:13:41;;;;;;;6.78;5.63;;;;;;;25.85;50.93;101182.41;4995531;28;20065;-62
2023/09/14 05:16:08;;;;;;;6.40;5.75;;;;;;;25.83;50.88;101179.84;4996521;28;20058;-62
2023/09/14 05:18:37;;;;;;;7.47;6.22;;;;;;;25.82;50.98;101189.00;4995158;28;20090;-63
2023/09/14 05:21:04;;;;;;;8.77;6.70;;;;;;;25.83;51.14;101184.41;4996527;28;20050;-63
2023/09/14 05:23:32;;;;;;;6.63;5.78;;;;;;;25.82;51.35;101180.88;4995190;28;20050;-63
2023/09/14 05:25:59;;;;;;;6.85;5.70;;;;;;;25.83;51.21;101187.13;4996156;28;20054;-63
2023/09/14 05:28:27;;;;;;;6.15;5.55;;;;;;;25.83;51.30;101184.41;4997102;28;20374;-62
2023/09/14 05:30:55;;;;;;;5.82;5.22;;;;;;;25.83;51.10;101190.69;4995020;28;20497;-61
2023/09/14 05:33:22;;;;;;;6.85;5.57;;;;;;;25.82;51.19;101189.00;4996526;28;20038;-62
2023/09/14 05:35:51;;;;;;;7.50;6.13;;;;;;;25.81;51.12;101187.31;4995704;28;20061;-62
2023/09/14 05:38:19;;;;;;;7.50;6.13;;;;;;;25.82;51.18;101197.13;4995177;28;20047;-62
2023/09/14 05:40:46;;;;;;;7.15;5.32;;;;;;;25.82;51.09;101190.88;4995414;28;20054;-63
2023/09/14 05:43:14;;;;;;;6.13;5.50;;;;;;;25.82;51.04;101191.72;4994915;28;20046;-63
2023/09/14 05:45:41;;;;;;;6.85;5.65;;;;;;;25.82;51.14;101190.88;4996136;28;20050;-63
2023/09/14 05:48:09;;;;;;;9.15;6.13;;;;;;;25.83;51.10;101195.28;4994935;28;20085;-62
2023/09/14 05:50:36;;;;;;;6.95;5.90;;;;;;;25.83;51.14;101197.97;4995000;28;20412;-63
2023/09/14 05:53:06;;;;;;;7.00;5.10;;;;;;;25.83;51.08;101203.41;4994697;28;20061;-63
2023/09/14 05:55:34;;;;;;;7.47;6.07;;;;;;;25.84;51.12;101205.09;4995919;28;20058;-62
2023/09/14 05:58:01;;;;;;;7.75;5.80;;;;;;;25.85;51.06;101210.38;4994893;28;20053;-61
2023/09/14 06:00:29;;;;;;;7.05;6.07;;;;;;;25.86;51.12;101211.22;4995922;28;20408;-62
2023/09/14 06:02:58;;;;;;;6.68;5.65;;;;;;;25.86;51.20;101219.34;4994742;28;20528;-62
2023/09/14 06:05:25;;;;;;;7.75;6.10;;;;;;;25.86;51.16;101220.19;4995638;28;20388;-61
2023/09/14 06:07:54;;;;;;;6.63;5.65;;;;;;;25.86;51.30;101222.91;4994732;28;20058;-61
2023/09/14 06:10:24;;;;;;;8.05;7.05;;;;;;;25.88;51.20;101225.44;4994498;28;20050;-62
2023/09/14 06:12:52;;;;;;;7.63;6.03;;;;;;;25.88;51.09;101236.28;4995941;28;20049;-63
2023/09/14 06:15:19;;;;;;;7.25;5.70;;;;;;;25.89;51.10;101229.88;4996978;28;20493;-63
2023/09/14 06:17:47;;;;;;;7.95;6.45;;;;;;;25.89;51.16;101229.88;5010096;28;20057;-63
2023/09/14 06:20:15;;;;;;;7.35;5.80;;;;;;;25.91;51.17;101235.13;5011504;28;20053;-62
2023/09/14 06:22:43;;;;;;;6.38;5.30;;;;;;;25.92;51.43;101232.25;5010833;28;20053;-62
2023/09/14 06:25:10;;;;;;;7.40;5.03;;;;;;;25.94;51.29;101238.38;4996923;28;20472;-62
2023/09/14 06:27:38;;;;;;;4.95;4.32;;;;;;;25.95;51.39;101242.78;4995454;28;20053;-62
2023/09/14 06:30:06;;;;;;;5.55;4.85;;;;;;;25.97;51.37;101238.03;4995659;28;20531;-62
2023/09/14 06:32:33;;;;;;;7.35;5.22;;;;;;;25.98;51.36;101237.03;4994580;28;20077;-62
2023/09/14 06:35:01;;;;;;;5.82;4.68;;;;;;;26.01;50.98;101233.09;4996496;28;20065;-62
2023/09/14 06:37:28;;;;;;;7.05;5.15;;;;;;;26.03;51.28;101241.94;4995148;28;20055;-63
2023/09/14 06:39:56;;;;;;;5.90;5.10;;;;;;;26.06;51.36;101241.63;4995584;28;20417;-62
2023/09/14 06:42:24;;;;;;;5.53;4.95;;;;;;;26.07;51.44;101246.03;4995315;28;20049;-61
2023/09/14 06:44:51;;;;;;;6.07;4.78;;;;;;;26.07;51.58;101244.16;4994679;28;20042;-61
2023/09/14 06:47:18;;;;;;;5.78;5.03;;;;;;;26.09;51.63;101244.84;4995173;28;20054;-61
2023/09/14 06:49:46;;;;;;;5.68;5.13;;;;;;;26.10;51.57;101241.13;4995649;28;20047;-62
2023/09/14 06:52:13;;;;;;;7.32;5.50;;;;;;;26.09;51.85;101244.84;4995376;28;20049;-63
2023/09/14 06:54:40;;;;;;;12.70;8.60;;;;;;;26.07;52.00;101241.44;4996116;28;20046;-63
2023/09/14 06:57:08;;;;;;;12.50;8.48;;;;;;;26.01;52.02;101243.97;4995044;28;20054;-63
2023/09/14 06:59:35;;;;;;;9.98;7.68;;;;;;;25.97;52.39;101243.47;4994995;28;20492;-61
2023/09/14 07:02:03;;;;;;;8.60;7.72;;;;;;;25.95;52.35;101256.34;4995214;28;20046;-61
2023/09/14 07:04:30;;;;;;;8.38;7.57;;;;;;;25.95;52.49;101248.19;4996193;28;20400;-67
2023/09/14 07:06:58;;;;;;;10.70;7.35;;;;;;;25.96;52.48;101260.75;4997969;28;20046;-66
2023/09/14 07:09:25;;;;;;;11.00;8.10;;;;;;;25.97;52.63;101248.00;5006918;28;20046;-67
2023/09/14 07:11:53;;;;;;;9.57;7.70;;;;;;;25.98;52.59;101250.59;4994808;28;20057;-67
2023/09/14 07:14:20;;;;;;;9.65;8.60;;;;;;;25.98;52.66;101252.44;4995830;28;20049;-67
2023/09/14 07:16:47;;;;;;;11.25;8.77;;;;;;;25.97;52.58;101248.88;4994981;28;20063;-67
2023/09/14 07:19:15;;;;;;;10.02;8.50;;;;;;;25.96;52.67;101246.31;4994601;28;20050;-68
2023/09/14 07:21:43;;;;;;;10.98;7.90;;;;;;;25.95;52.75;101245.47;4993468;28;20054;-68
2023/09/14 07:24:10;;;;;;;8.93;8.02;;;;;;;25.92;52.86;101251.22;4995654;28;20046;-69
2023/09/14 07:26:39;;;;;;;10.30;8.73;;;;;;;25.90;52.80;101250.56;4995721;28;20421;-68
2023/09/14 07:29:07;;;;;;;9.68;8.02;;;;;;;25.85;52.97;101244.78;4995069;28;20057;-64
2023/09/14 07:31:35;;;;;;;7.35;6.55;;;;;;;25.84;53.18;101256.63;4996690;28;20061;-63
2023/09/14 07:34:03;;;;;;;8.88;6.40;;;;;;;25.78;53.30;101246.47;4996905;28;20054;-63
2023/09/14 07:36:32;;;;;;;8.15;6.80;;;;;;;25.76;53.61;101253.84;4994466;28;20066;-64
2023/09/14 07:38:59;;;;;;;7.75;6.13;;;;;;;25.72;53.54;101249.78;4994532;28;20497;-64
2023/09/14 07:41:26;;;;;;;7.90;6.78;;;;;;;25.70;53.88;101254.53;4994614;28;20042;-63
2023/09/14 07:43:54;;;;;;;10.05;6.03;;;;;;;25.65;53.98;101258.59;5000308;28;20247;-63
2023/09/14 07:46:22;;;;;;;7.30;6.43;;;;;;;25.65;54.31;101257.75;5000789;28;20057;-63
2023/09/14 07:48:49;;;;;;;7.65;6.38;;;;;;;25.65;54.48;101257.75;5008636;28;20057;-67
2023/09/14 07:51:17;;;;;;;6.85;6.15;;;;;;;25.64;54.26;101266.84;5013474;28;20053;-68
2023/09/14 07:53:44;;;;;;;6.68;5.90;;;;;;;25.62;54.43;101275.16;4998759;28;20050;-68
2023/09/14 07:56:12;;;;;;;6.38;5.68;;;;;;;25.62;54.62;101271.63;4998220;28;20046;-68
2023/09/14 07:58:39;;;;;;;8.15;6.07;;;;;;;25.61;54.59;101272.63;4998155;28;20050;-68
2023/09/14 08:01:07;;;;;;;6.15;5.45;;;;;;;25.63;54.28;101276.00;4995304;28;20057;-67
2023/09/14 08:03:34;;;;;;;7.43;5.45;;;;;;;25.63;54.58;101287.72;4998597;28;20042;-68
2023/09/14 08:06:02;;;;;;;6.10;5.45;;;;;;;25.64;54.64;101284.00;5009614;28;20050;-68
2023/09/14 08:08:29;;;;;;;6.47;5.00;;;;;;;25.63;54.64;101285.00;4998349;28;20042;-67
2023/09/14 08:10:57;;;;;;;6.50;5.40;;;;;;;25.65;54.69;101280.28;5000015;28;20046;-68
2023/09/14 08:13:24;;;;;;;6.80;6.10;;;;;;;25.66;54.51;101291.97;5000597;28;20499;-68
2023/09/14 08:15:52;;;;;;;5.93;5.30;;;;;;;25.68;54.29;101294.50;5009508;28;20049;-68
2023/09/14 08:18:20;;;;;;;7.65;5.18;;;;;;;25.68;54.33;101294.50;5000326;28;20061;-68
2023/09/14 08:20:47;;;;;;;7.05;5.63;;;;;;;25.69;54.29;101301.66;4997569;28;20050;-68
2023/09/14 08:23:15;;;;;;;6.68;6.07;;;;;;;25.67;54.26;101303.66;5000756;28;20049;-68
2023/09/14 08:25:47;;;;;;;6.82;5.72;;;;;;;25.67;54.30;101312.63;4985971;28;20054;-69
2023/09/14 08:28:19;;;;;;;7.82;6.28;;;;;;;25.69;54.19;101315.22;4997487;28;20042;-57
2023/09/14 08:30:48;;;;;;;7.33;5.87;;;;;;;25.70;54.29;101311.47;4998459;28;20050;-58
2023/09/14 08:33:18;;;;;;;6.35;5.32;;;;;;;25.71;54.33;101307.75;4995608;28;20043;-58
2023/09/14 08:35:47;;;;;;;8.25;5.68;;;;;;;25.70;54.14;101306.91;4997301;28;20050;-57
2023/09/14 08:38:14;;;;;;;6.25;4.85;;;;;;;25.71;54.10;101310.47;4997541;28;20038;-58
2023/09/14 08:40:46;;;;;;;6.25;5.38;;;;;;;25.73;53.91;101305.72;4998150;28;20054;-57
2023/09/14 08:43:14;;;;;;;5.93;5.32;;;;;;;25.75;54.06;101299.13;4997170;28;20047;-57
2023/09/14 08:45:42;;;;;;;7.10;5.07;;;;;;;25.78;53.95;101309.69;5003295;28;20046;-57
2023/09/14 08:48:11;;;;;;;7.25;5.38;;;;;;;25.81;53.90;101305.81;5012361;28;20042;-58
2023/09/14 08:50:39;;;;;;;6.63;5.82;;;;;;;25.80;54.14;101294.06;5010555;28;20049;-57
2023/09/14 08:53:07;;;;;;;7.13;5.85;;;;;;;25.81;54.25;101301.22;5011089;28;20061;-58
2023/09/14 08:55:35;;;;;;;5.88;5.35;;;;;;;25.82;54.14;101302.06;5011673;28;20054;-60
2023/09/14 08:58:03;;;;;;;7.68;5.72;;;;;;;25.83;54.16;101304.59;5011134;28;20042;-59
2023/09/14 09:00:32;;;;;;;5.20;4.70;;;;;;;25.84;53.88;101305.44;5007861;28;20057;-60
2023/09/14 09:02:59;;;;;;;5.30;4.80;;;;;;;25.85;53.94;101308.03;4999187;28;20400;-60
2023/09/14 09:05:27;;;;;;;6.00;5.40;;;;;;;25.86;53.88;101298.00;5003971;28;20061;-60
2023/09/14 09:07:56;;;;;;;6.53;5.85;;;;;;;25.88;53.94;101301.41;5011903;28;20413;-60
2023/09/14 09:10:30;;;;;;;7.10;5.70;;;;;;;25.89;53.87;101298.53;5010625;28;20084;-62
2023/09/14 09:12:58;;;;;;;;;;;;;;;25.86;54.18;101290.72;4990240;28;20467;-62
2023/09/14 09:15:32;;;;;;;6.38;5.32;;;;;;;25.89;53.72;101297.69;5011036;28;19921;-61
2023/09/14 09:18:08;;;;;;;8.70;6.10;;;;;;;25.88;54.06;101302.25;5011208;28;20045;-60
2023/09/14 09:20:39;;;;;;;7.53;6.18;;;;;;;25.89;54.14;101303.97;5010300;28;20417;-60
2023/09/14 09:23:08;;;;;;;6.22;5.63;;;;;;;25.90;54.09;101293.97;5011621;28;20042;-60
2023/09/14 09:25:54;;;;;;;6.28;5.43;;;;;;;25.90;54.11;101299.38;5011684;28;20046;-60
2023/09/14 09:28:31;;;;;;;6.45;5.85;;;;;;;25.90;53.93;101299.38;5009503;28;20412;-60
2023/09/14 09:31:01;;;;;;;7.13;6.00;;;;;;;25.89;53.92;101293.13;5011593;28;20057;-62
2023/09/14 09:33:36;;;;;;;7.50;5.55;;;;;;;25.90;53.67;101293.97;5011321;28;20050;-62
2023/09/14 09:36:17;;;;;;;6.65;5.35;;;;;;;25.92;53.81;101285.66;5010211;28;20051;-62
2023/09/14 09:38:45;;;;;;;5.90;5.28;;;;;;;25.94;53.64;101289.91;4992930;28;20057;-61
2023/09/14 09:41:15;;;;;;;6.22;5.63;;;;;;;25.95;54.04;101282.63;5011354;28;20057;-62
2023/09/14 09:43:44;;;;;;;6.82;5.93;;;;;;;25.96;54.23;101278.88;5009819;28;20053;-62
2023/09/14 09:46:16;;;;;;;8.00;5.38;;;;;;;25.97;54.05;101280.56;5009975;28;20065;-62
2023/09/14 09:48:44;;;;;;;5.55;4.97;;;;;;;25.96;54.15;101287.88;5011225;28;20052;-60
2023/09/14 09:51:12;;;;;;;5.68;5.07;;;;;;;25.97;53.86;101281.44;5009984;28;20046;-60
2023/09/14 09:54:06;;;;;;;6.93;4.88;;;;;;;25.99;53.93;101282.13;4996788;28;20495;-59
2023/09/14 09:56:38;;;;;;;6.22;5.38;;;;;;;26.00;53.94;101278.38;4987814;28;20053;-59
2023/09/14 09:59:09;;;;;;;5.25;4.70;;;;;;;26.01;53.89;101290.97;4995793;28;20046;-61
2023/09/14 10:01:38;;;;;;;7.50;6.10;;;;;;;26.02;54.04;101284.50;4998589;28;20046;-62
2023/09/14 10:04:14;;;;;;;6.25;5.65;;;;;;;26.03;53.84;101279.94;4995778;28;20408;-62
2023/09/14 10:06:48;;;;;;;6.38;5.53;;;;;;;26.02;53.47;101278.25;4995359;28;20050;-62
2023/09/14 10:09:16;;;;;;;7.05;6.20;;;;;;;26.02;53.25;101276.38;4996610;28;20047;-60
2023/09/14 10:11:46;;;;;;;7.05;5.45;;;;;;;26.02;53.24;101281.78;4994329;28;20050;-62
2023/09/14 10:14:16;;;;;;;6.30;5.70;;;;;;;26.03;53.13;101282.63;4995336;28;20054;-62
2023/09/14 10:16:44;;;;;;;5.88;4.85;;;;;;;26.04;52.97;101278.91;4994261;28;20496;-62
2023/09/14 10:19:13;;;;;;;6.20;4.45;;;;;;;26.03;52.98;101260.94;4996367;28;20053;-61
2023/09/14 10:21:41;;;;;;;5.90;5.30;;;;;;;26.04;52.78;101260.75;4995282;28;20047;-62
2023/09/14 10:24:09;;;;;;;6.07;5.18;;;;;;;26.05;52.77;101269.75;4995244;28;20046;-62
2023/09/14 10:26:37;;;;;;;7.95;5.30;;;;;;;26.07;52.69;101262.31;4995401;28;20069;-62
2023/09/14 10:29:06;;;;;;;5.10;4.38;;;;;;;26.09;52.50;101262.97;4998846;28;20050;-60
2023/09/14 10:31:36;;;;;;;4.80;4.30;;;;;;;26.08;52.38;101262.13;4984887;28;20050;-60
2023/09/14 10:34:04;;;;;;;7.68;6.03;;;;;;;26.10;52.31;101264.69;4995115;28;20057;-59
2023/09/14 10:36:34;;;;;;;6.78;4.60;;;;;;;26.09;52.31;101253.00;4995403;28;20050;-59
2023/09/14 10:39:06;;;;;;;5.80;5.22;;;;;;;26.12;52.25;101254.50;4994116;28;20058;-60
2023/09/14 10:41:34;;;;;;;6.10;4.80;;;;;;;26.13;52.40;101251.63;5005344;28;20532;-60
2023/09/14 10:44:04;;;;;;;4.75;4.22;;;;;;;26.14;52.39;101247.91;4995122;28;20046;-59
2023/09/14 10:46:36;;;;;;;5.45;4.88;;;;;;;26.15;52.42;101243.31;5008167;28;20057;-59
2023/09/14 10:49:04;;;;;;;6.00;5.07;;;;;;;26.17;52.37;101240.44;5010397;28;20532;-60
2023/09/14 10:51:31;;;;;;;5.47;4.90;;;;;;;26.17;52.45;101237.72;5010223;28;20046;-59
2023/09/14 10:54:00;;;;;;;6.28;5.35;;;;;;;26.18;52.36;101234.00;5000158;28;20045;-60
2023/09/14 10:56:31;;;;;;;4.88;4.35;;;;;;;26.19;52.49;101228.41;4995969;28;20054;-59
2023/09/14 10:59:05;;;;;;;6.15;5.45;;;;;;;26.20;52.75;101229.25;4995033;28;20536;-59
2023/09/14 11:01:32;;;;;;;7.20;4.78;;;;;;;26.20;52.80;101223.81;4995027;28;20512;-59
2023/09/14 11:04:19;;;;;;;6.43;5.03;;;;;;;26.21;52.86;101222.78;4995838;28;20057;-60
2023/09/14 11:06:55;;;;;;;5.63;5.13;;;;;;;26.22;52.98;101232.66;4993208;28;20054;-61
2023/09/14 11:09:24;;;;;;;7.68;5.25;;;;;;;26.21;52.89;101231.81;4994878;28;20050;-60
2023/09/14 11:11:53;;;;;;;6.70;5.22;;;;;;;26.21;52.79;101223.66;4994644;28;20042;-60
2023/09/14 11:14:25;;;;;;;6.13;5.35;;;;;;;26.22;52.59;101217.22;4994079;28;20051;-60
2023/09/14 11:16:57;;;;;;;6.13;5.53;;;;;;;26.23;52.53;101213.47;4993544;28;20050;-60
2023/09/14 11:19:46;;;;;;;6.15;5.13;;;;;;;26.23;52.51;101201.78;4997825;28;20061;-62
2023/09/14 11:22:25;;;;;;;6.38;5.18;;;;;;;26.26;52.50;101204.16;4996290;28;20408;-59
2023/09/14 11:24:54;;;;;;;5.70;5.10;;;;;;;26.25;52.65;101206.03;4997453;28;20038;-57
2023/09/14 11:27:24;;;;;;;5.93;5.38;;;;;;;26.26;52.80;101205.00;4998604;28;20050;-57
2023/09/14 11:29:52;;;;;;;5.85;5.22;;;;;;;26.27;52.94;101200.44;4999439;28;20105;-57
2023/09/14 11:32:26;;;;;;;6.55;5.43;;;;;;;26.29;52.86;101217.38;4998709;28;20058;-57